Pagina principale
METAR-TAF:

METAR-TAF

Aeroporti :

Aeroporto di Porto Alegre-Salgado Filho

Porto Alegre, Rio Grande do Sul, Brasile

latitudine: 30-00S, longitudine: 051-11W, altezza: 3 m

Osservazione

Il bollettino è stato emesso 52 minuti fa, alle 05:00 UTC
Vento 5 kt da est
Temperature 16°C
Umidità 94%
Pressione 1011 hPa
Visibilità 10 km o più
nessuna nube inferiore a 1500 m e nessun cumulonembo

METAR: SBPA 160500Z 09005KT CAVOK 16/15 Q1011

Ora: 02:52 (05:52 UTC)

Previsione

Il bollettino è stato emesso 4 ore e 22 minuti fa, alle 01:30 UTC
Previsione valida dal 16 alle 06 UTC al 17 alle 06 UTC
Vento 6 kt da est/sud-est
Visibilità 10 km o più
nessuna nube inferiore a 1500 m e nessun cumulonembo
Evoluzione graduale
dal 16 alle 16 UTC al 16 alle 18 UTC
Vento 11 kt da est/sud-est

TAF: SBPA 160130Z 1606/1706 11006KT CAVOK TN15/1608Z TX28/1618Z BECMG 1616/1618 11011KT RMK PEB

Osservazioni e previsioni meteorologiche di più di 4000 aeroporti (messaggi METAR e TAF).

Le stazioni disponibili sono rappresentate dai dischi gialli e rossi sulla carta.

Puntare il mouse per vedere il nome della stazione.

Clicca sopra per visualizzare le osservazioni e previsioni meteorologiche.

Per cambiare la mappa : fare clic sui pulsanti verdi con una croce nera per ingrandire, il pulsante verde con un trattino per diminuire, o sulla freccia verde per le mappe adiacenti.


METAR-TAF: